RYR4296 LPFR-GMMX
Flight info
| Callsign | RYR4296 |
|---|---|
| Flight time | 1h 1m |
| Altitude | 37000 |
| Route | OKARI DCT AMSEL UR722 SAK UW900 SLK UZ801 VALBA UG850 OBOGA |
| Aircraft | B738/M-DE2E3FGHILRWXY/LB1 |
Departure
| Time | 2026-05-05 21:21 |
|---|---|
| Airport | Faro - Gago Coutinho International Airport (LPFR) |
Arrival
| Time | 2026-05-05 22:23 |
|---|---|
| Airport | Marrakesh Menara Airport (GMMX) |
| Time | Latitude | Longitude | Altitude | Speed | Heading |
|---|---|---|---|---|---|
| 2026-05-05 21:09 | 37.01870 | -7.96560 | 19 ft | 0 kts | 9° |
| 2026-05-05 21:16 | 37.01859 | -7.96562 | 19 ft | 4 kts | 9° |
| 2026-05-05 21:16 | 37.01832 | -7.96567 | 19 ft | 4 kts | 9° |
| 2026-05-05 21:16 | 37.01811 | -7.96572 | 21 ft | 4 kts | 23° |
| 2026-05-05 21:16 | 37.01796 | -7.96589 | 21 ft | 4 kts | 95° |
| 2026-05-05 21:17 | 37.01797 | -7.96597 | 21 ft | 0 kts | 99° |
| 2026-05-05 21:18 | 37.01795 | -7.96585 | 21 ft | 6 kts | 101° |
| 2026-05-05 21:19 | 37.01776 | -7.96471 | 19 ft | 21 kts | 99° |
| 2026-05-05 21:19 | 37.01743 | -7.96245 | 21 ft | 30 kts | 100° |
| 2026-05-05 21:19 | 37.01689 | -7.96083 | 19 ft | 16 kts | 165° |
| 2026-05-05 21:19 | 37.01582 | -7.96093 | 19 ft | 15 kts | 164° |
| 2026-05-05 21:20 | 37.01541 | -7.95980 | 20 ft | 15 kts | 97° |
| 2026-05-05 21:20 | 37.01514 | -7.95862 | 19 ft | 14 kts | 131° |
| 2026-05-05 21:20 | 37.01424 | -7.95846 | 19 ft | 13 kts | 189° |
| 2026-05-05 21:20 | 37.01351 | -7.95895 | 19 ft | 13 kts | 262° |
| 2026-05-05 21:21 | 37.01387 | -7.96159 | 21 ft | 69 kts | 279° |
| 2026-05-05 21:21 | 37.01519 | -7.97105 | 21 ft | 149 kts | 281° |
| 2026-05-05 21:21 | 37.01716 | -7.98490 | 676 ft | 168 kts | 286° |
| 2026-05-05 21:21 | 37.02013 | -7.99954 | 1560 ft | 181 kts | 283° |
| 2026-05-05 21:22 | 37.02131 | -8.01162 | 2305 ft | 191 kts | 285° |
| 2026-05-05 21:22 | 37.02367 | -8.02878 | 2816 ft | 207 kts | 286° |
| 2026-05-05 21:22 | 37.02629 | -8.04677 | 3462 ft | 214 kts | 286° |
| 2026-05-05 21:22 | 37.02902 | -8.06531 | 4196 ft | 220 kts | 284° |
| 2026-05-05 21:23 | 37.02897 | -8.08537 | 4644 ft | 250 kts | 256° |
| 2026-05-05 21:23 | 37.01988 | -8.10421 | 5123 ft | 270 kts | 223° |
| 2026-05-05 21:23 | 37.00302 | -8.11567 | 6040 ft | 274 kts | 194° |
| 2026-05-05 21:23 | 36.98409 | -8.11928 | 6924 ft | 278 kts | 185° |
| 2026-05-05 21:24 | 36.96470 | -8.12073 | 7775 ft | 282 kts | 184° |
| 2026-05-05 21:24 | 36.95164 | -8.12142 | 8316 ft | 285 kts | 184° |
| 2026-05-05 21:24 | 36.93172 | -8.12245 | 9188 ft | 288 kts | 185° |
| 2026-05-05 21:24 | 36.91153 | -8.12338 | 10046 ft | 292 kts | 185° |
| 2026-05-05 21:25 | 36.89086 | -8.12429 | 10596 ft | 307 kts | 184° |
| 2026-05-05 21:25 | 36.86862 | -8.12550 | 10794 ft | 332 kts | 185° |
| 2026-05-05 21:25 | 36.84510 | -8.12700 | 11341 ft | 343 kts | 185° |
| 2026-05-05 21:25 | 36.82118 | -8.12868 | 12097 ft | 346 kts | 186° |
| 2026-05-05 21:26 | 36.79703 | -8.13049 | 12912 ft | 349 kts | 186° |
| 2026-05-05 21:26 | 36.77263 | -8.13241 | 13673 ft | 354 kts | 186° |
| 2026-05-05 21:26 | 36.74787 | -8.13442 | 14342 ft | 359 kts | 186° |
| 2026-05-05 21:26 | 36.72283 | -8.13648 | 15034 ft | 363 kts | 186° |
| 2026-05-05 21:27 | 36.69752 | -8.13855 | 15734 ft | 366 kts | 187° |
| 2026-05-05 21:27 | 36.67190 | -8.13893 | 16418 ft | 373 kts | 178° |
| 2026-05-05 21:27 | 36.64616 | -8.13239 | 17103 ft | 381 kts | 167° |
| 2026-05-05 21:27 | 36.62066 | -8.12291 | 17803 ft | 385 kts | 166° |
| 2026-05-05 21:28 | 36.59488 | -8.11303 | 18412 ft | 390 kts | 166° |
| 2026-05-05 21:28 | 36.56882 | -8.10306 | 18999 ft | 393 kts | 166° |
| 2026-05-05 21:28 | 36.54262 | -8.09314 | 19617 ft | 395 kts | 166° |
| 2026-05-05 21:28 | 36.51621 | -8.08326 | 20189 ft | 399 kts | 167° |
| 2026-05-05 21:29 | 36.48952 | -8.07337 | 20747 ft | 402 kts | 167° |
| 2026-05-05 21:29 | 36.46259 | -8.06346 | 21296 ft | 405 kts | 167° |
| 2026-05-05 21:29 | 36.43545 | -8.05351 | 21833 ft | 409 kts | 167° |
| 2026-05-05 21:29 | 36.40806 | -8.04348 | 22375 ft | 412 kts | 167° |
| 2026-05-05 21:30 | 36.38046 | -8.03339 | 22906 ft | 415 kts | 167° |
| 2026-05-05 21:30 | 36.35267 | -8.02324 | 23422 ft | 419 kts | 167° |
| 2026-05-05 21:30 | 36.32462 | -8.01300 | 23875 ft | 422 kts | 168° |
| 2026-05-05 21:30 | 36.29631 | -8.00267 | 24314 ft | 424 kts | 168° |
| 2026-05-05 21:31 | 36.26796 | -7.99233 | 24765 ft | 426 kts | 168° |
| 2026-05-05 21:31 | 36.23941 | -7.98192 | 25199 ft | 429 kts | 168° |
| 2026-05-05 21:31 | 36.21070 | -7.97146 | 25584 ft | 432 kts | 168° |
| 2026-05-05 21:31 | 36.18177 | -7.96094 | 25973 ft | 435 kts | 168° |
| 2026-05-05 21:32 | 36.15267 | -7.95036 | 26386 ft | 437 kts | 168° |
| 2026-05-05 21:32 | 36.12346 | -7.93974 | 26813 ft | 439 kts | 168° |
| 2026-05-05 21:32 | 36.09409 | -7.92907 | 27207 ft | 441 kts | 168° |
| 2026-05-05 21:32 | 36.06457 | -7.91836 | 27594 ft | 443 kts | 168° |
| 2026-05-05 21:33 | 36.03494 | -7.90761 | 27972 ft | 445 kts | 168° |
| 2026-05-05 21:33 | 36.00511 | -7.89681 | 28345 ft | 447 kts | 168° |
| 2026-05-05 21:33 | 35.97498 | -7.88820 | 28666 ft | 445 kts | 176° |
| 2026-05-05 21:33 | 35.94421 | -7.88547 | 29008 ft | 442 kts | 186° |
| 2026-05-05 21:34 | 35.91372 | -7.88847 | 29346 ft | 440 kts | 191° |
| 2026-05-05 21:34 | 35.88322 | -7.89268 | 29697 ft | 441 kts | 191° |
| 2026-05-05 21:34 | 35.85264 | -7.89704 | 30028 ft | 444 kts | 191° |
| 2026-05-05 21:34 | 35.82190 | -7.90137 | 30326 ft | 445 kts | 191° |
| 2026-05-05 21:35 | 35.79117 | -7.90559 | 30718 ft | 444 kts | 191° |
| 2026-05-05 21:35 | 35.76057 | -7.90967 | 31188 ft | 440 kts | 191° |
| 2026-05-05 21:35 | 35.73020 | -7.91365 | 31636 ft | 438 kts | 191° |
| 2026-05-05 21:35 | 35.69997 | -7.91757 | 32018 ft | 437 kts | 191° |
| 2026-05-05 21:36 | 35.66974 | -7.92147 | 32379 ft | 436 kts | 191° |
| 2026-05-05 21:36 | 35.64002 | -7.92530 | 32761 ft | 434 kts | 191° |
| 2026-05-05 21:36 | 35.61861 | -7.92806 | 33047 ft | 433 kts | 191° |
| 2026-05-05 21:37 | 35.59249 | -7.93141 | 33395 ft | 432 kts | 191° |
| 2026-05-05 21:37 | 35.56268 | -7.93524 | 33785 ft | 430 kts | 191° |
| 2026-05-05 21:37 | 35.53297 | -7.93906 | 34130 ft | 429 kts | 191° |
| 2026-05-05 21:37 | 35.50337 | -7.94286 | 34409 ft | 428 kts | 191° |
| 2026-05-05 21:38 | 35.47365 | -7.94669 | 34617 ft | 429 kts | 190° |
| 2026-05-05 21:38 | 35.44386 | -7.95053 | 34766 ft | 432 kts | 190° |
| 2026-05-05 21:38 | 35.41390 | -7.95438 | 35009 ft | 432 kts | 190° |
| 2026-05-05 21:38 | 35.38405 | -7.95820 | 35313 ft | 431 kts | 191° |
| 2026-05-05 21:39 | 35.35428 | -7.96200 | 35581 ft | 430 kts | 191° |
| 2026-05-05 21:39 | 35.32450 | -7.96581 | 35801 ft | 431 kts | 191° |
| 2026-05-05 21:39 | 35.29468 | -7.96962 | 36022 ft | 431 kts | 191° |
| 2026-05-05 21:39 | 35.26481 | -7.97344 | 36268 ft | 431 kts | 191° |
| 2026-05-05 21:40 | 35.23502 | -7.97724 | 36507 ft | 430 kts | 191° |
| 2026-05-05 21:40 | 35.20522 | -7.98104 | 36688 ft | 431 kts | 191° |
| 2026-05-05 21:40 | 35.17531 | -7.98486 | 36872 ft | 432 kts | 191° |
| 2026-05-05 21:40 | 35.14541 | -7.98866 | 37081 ft | 433 kts | 191° |
| 2026-05-05 21:41 | 35.08513 | -7.99635 | 37074 ft | 436 kts | 191° |
| 2026-05-05 21:41 | 35.02501 | -8.00396 | 37058 ft | 431 kts | 191° |
| 2026-05-05 21:42 | 34.96569 | -8.01145 | 37059 ft | 428 kts | 191° |
| 2026-05-05 21:42 | 34.90656 | -8.01895 | 37073 ft | 427 kts | 191° |
| 2026-05-05 21:43 | 34.84751 | -8.02643 | 37079 ft | 427 kts | 191° |
| 2026-05-05 21:43 | 34.78841 | -8.03390 | 37080 ft | 427 kts | 191° |
| 2026-05-05 21:44 | 34.72917 | -8.04138 | 37079 ft | 429 kts | 191° |
| 2026-05-05 21:44 | 34.66974 | -8.04887 | 37078 ft | 430 kts | 191° |
| 2026-05-05 21:45 | 34.61011 | -8.05637 | 37077 ft | 431 kts | 191° |
| 2026-05-05 21:45 | 34.55071 | -8.06382 | 37081 ft | 433 kts | 191° |
| 2026-05-05 21:46 | 34.49075 | -8.07134 | 37082 ft | 434 kts | 191° |
| 2026-05-05 21:46 | 34.43069 | -8.07885 | 37076 ft | 434 kts | 191° |
| 2026-05-05 21:47 | 34.37062 | -8.08636 | 37072 ft | 434 kts | 191° |
| 2026-05-05 21:47 | 34.31055 | -8.09385 | 37082 ft | 434 kts | 191° |
| 2026-05-05 21:48 | 34.25051 | -8.10133 | 37085 ft | 433 kts | 191° |
| 2026-05-05 21:48 | 34.19053 | -8.10880 | 37070 ft | 433 kts | 191° |
| 2026-05-05 21:49 | 34.13075 | -8.11622 | 37083 ft | 431 kts | 192° |
| 2026-05-05 21:49 | 34.07102 | -8.12364 | 37081 ft | 431 kts | 192° |
| 2026-05-05 21:50 | 34.01152 | -8.13101 | 37080 ft | 430 kts | 192° |
| 2026-05-05 21:50 | 33.95216 | -8.13836 | 37081 ft | 429 kts | 192° |
| 2026-05-05 21:51 | 33.89281 | -8.14569 | 37072 ft | 428 kts | 192° |
| 2026-05-05 21:51 | 33.83362 | -8.15299 | 37074 ft | 427 kts | 192° |
| 2026-05-05 21:52 | 33.74505 | -8.16390 | 37082 ft | 426 kts | 192° |
| 2026-05-05 21:52 | 33.71555 | -8.16753 | 36808 ft | 426 kts | 192° |
| 2026-05-05 21:53 | 33.68632 | -8.17111 | 36539 ft | 419 kts | 192° |
| 2026-05-05 21:53 | 33.65749 | -8.17462 | 36155 ft | 413 kts | 193° |
| 2026-05-05 21:53 | 33.62906 | -8.17808 | 35773 ft | 409 kts | 193° |
| 2026-05-05 21:53 | 33.60085 | -8.18154 | 35387 ft | 406 kts | 193° |
| 2026-05-05 21:54 | 33.57286 | -8.18497 | 35007 ft | 403 kts | 192° |
| 2026-05-05 21:54 | 33.54507 | -8.18838 | 34630 ft | 400 kts | 192° |
| 2026-05-05 21:54 | 33.51753 | -8.19177 | 34256 ft | 397 kts | 192° |
| 2026-05-05 21:54 | 33.49010 | -8.19513 | 33853 ft | 395 kts | 192° |
| 2026-05-05 21:55 | 33.46287 | -8.19847 | 33434 ft | 392 kts | 192° |
| 2026-05-05 21:55 | 33.43582 | -8.20178 | 33035 ft | 389 kts | 191° |
| 2026-05-05 21:55 | 33.40899 | -8.20506 | 32638 ft | 386 kts | 192° |
| 2026-05-05 21:55 | 33.38235 | -8.20830 | 32310 ft | 382 kts | 192° |
| 2026-05-05 21:56 | 33.35636 | -8.21147 | 31945 ft | 379 kts | 192° |
| 2026-05-05 21:56 | 33.33020 | -8.21466 | 31591 ft | 377 kts | 192° |
| 2026-05-05 21:56 | 33.30422 | -8.21783 | 31235 ft | 374 kts | 191° |
| 2026-05-05 21:56 | 33.27840 | -8.22099 | 30880 ft | 372 kts | 191° |
| 2026-05-05 21:57 | 33.25271 | -8.22412 | 30529 ft | 370 kts | 191° |
| 2026-05-05 21:57 | 33.22713 | -8.22724 | 30190 ft | 369 kts | 190° |
| 2026-05-05 21:57 | 33.20166 | -8.23035 | 29787 ft | 367 kts | 190° |
| 2026-05-05 21:57 | 33.17637 | -8.23341 | 29396 ft | 364 kts | 190° |
| 2026-05-05 21:58 | 33.15128 | -8.23646 | 29019 ft | 361 kts | 190° |
| 2026-05-05 21:58 | 33.12637 | -8.23948 | 28644 ft | 359 kts | 190° |
| 2026-05-05 21:58 | 33.10163 | -8.24247 | 28297 ft | 356 kts | 190° |
| 2026-05-05 21:58 | 33.07706 | -8.24545 | 27934 ft | 354 kts | 190° |
| 2026-05-05 21:59 | 33.05266 | -8.24841 | 27581 ft | 351 kts | 190° |
| 2026-05-05 21:59 | 33.02840 | -8.25135 | 27231 ft | 349 kts | 190° |
| 2026-05-05 21:59 | 33.00426 | -8.25427 | 26886 ft | 348 kts | 190° |
| 2026-05-05 21:59 | 32.98034 | -8.25717 | 26543 ft | 347 kts | 190° |
| 2026-05-05 22:00 | 32.95630 | -8.26008 | 26199 ft | 347 kts | 190° |
| 2026-05-05 22:00 | 32.93206 | -8.26303 | 25865 ft | 354 kts | 190° |
| 2026-05-05 22:00 | 32.90718 | -8.26607 | 25491 ft | 364 kts | 189° |
| 2026-05-05 22:00 | 32.88192 | -8.26914 | 25103 ft | 365 kts | 190° |
| 2026-05-05 22:01 | 32.85674 | -8.27216 | 24742 ft | 363 kts | 190° |
| 2026-05-05 22:01 | 32.83161 | -8.27517 | 24357 ft | 362 kts | 190° |
| 2026-05-05 22:01 | 32.80657 | -8.27818 | 23987 ft | 362 kts | 190° |
| 2026-05-05 22:01 | 32.78155 | -8.28118 | 23611 ft | 361 kts | 190° |
| 2026-05-05 22:02 | 32.75656 | -8.28418 | 23185 ft | 360 kts | 190° |
| 2026-05-05 22:02 | 32.73175 | -8.28716 | 22808 ft | 358 kts | 190° |
| 2026-05-05 22:02 | 32.70706 | -8.29012 | 22445 ft | 355 kts | 190° |
| 2026-05-05 22:02 | 32.68255 | -8.29305 | 22072 ft | 353 kts | 190° |
| 2026-05-05 22:03 | 32.65818 | -8.29597 | 21728 ft | 350 kts | 191° |
| 2026-05-05 22:03 | 32.63401 | -8.29887 | 21379 ft | 348 kts | 191° |
| 2026-05-05 22:03 | 32.60997 | -8.30175 | 21014 ft | 346 kts | 191° |
| 2026-05-05 22:03 | 32.58615 | -8.30460 | 20683 ft | 343 kts | 191° |
| 2026-05-05 22:04 | 32.56254 | -8.30743 | 20343 ft | 340 kts | 192° |
| 2026-05-05 22:04 | 32.53908 | -8.31024 | 20006 ft | 338 kts | 192° |
| 2026-05-05 22:04 | 32.51577 | -8.31303 | 19672 ft | 335 kts | 192° |
| 2026-05-05 22:04 | 32.49262 | -8.31580 | 19339 ft | 333 kts | 192° |
| 2026-05-05 22:05 | 32.46959 | -8.31855 | 19006 ft | 332 kts | 192° |
| 2026-05-05 22:05 | 32.44672 | -8.32129 | 18675 ft | 330 kts | 192° |
| 2026-05-05 22:05 | 32.42392 | -8.32402 | 18336 ft | 328 kts | 192° |
| 2026-05-05 22:05 | 32.40155 | -8.32669 | 17961 ft | 326 kts | 192° |
| 2026-05-05 22:06 | 32.37912 | -8.32936 | 17594 ft | 320 kts | 192° |
| 2026-05-05 22:06 | 32.35748 | -8.33251 | 17327 ft | 306 kts | 196° |
| 2026-05-05 22:06 | 32.33690 | -8.33688 | 16993 ft | 295 kts | 198° |
| 2026-05-05 22:06 | 32.31710 | -8.34149 | 16720 ft | 285 kts | 198° |
| 2026-05-05 22:07 | 32.29789 | -8.34602 | 16423 ft | 279 kts | 198° |
| 2026-05-05 22:07 | 32.27882 | -8.35051 | 16155 ft | 281 kts | 198° |
| 2026-05-05 22:07 | 32.25954 | -8.35501 | 15870 ft | 282 kts | 198° |
| 2026-05-05 22:07 | 32.24040 | -8.35940 | 15607 ft | 279 kts | 198° |
| 2026-05-05 22:08 | 32.22135 | -8.36373 | 15320 ft | 278 kts | 198° |
| 2026-05-05 22:08 | 32.20242 | -8.36800 | 15042 ft | 276 kts | 198° |
| 2026-05-05 22:08 | 32.18358 | -8.37224 | 14760 ft | 275 kts | 198° |
| 2026-05-05 22:08 | 32.16475 | -8.37646 | 14372 ft | 278 kts | 198° |
| 2026-05-05 22:09 | 32.14509 | -8.38095 | 13380 ft | 300 kts | 197° |
| 2026-05-05 22:09 | 32.12384 | -8.38579 | 12467 ft | 318 kts | 196° |
| 2026-05-05 22:09 | 32.10195 | -8.39068 | 11947 ft | 324 kts | 195° |
| 2026-05-05 22:09 | 32.07958 | -8.39565 | 11409 ft | 331 kts | 195° |
| 2026-05-05 22:10 | 32.05683 | -8.40068 | 11252 ft | 337 kts | 194° |
| 2026-05-05 22:10 | 32.03300 | -8.40599 | 11106 ft | 358 kts | 194° |
| 2026-05-05 22:10 | 32.00874 | -8.41135 | 10922 ft | 349 kts | 194° |
| 2026-05-05 22:10 | 31.99319 | -8.41476 | 10816 ft | 341 kts | 194° |
| 2026-05-05 22:11 | 31.97034 | -8.41976 | 10672 ft | 328 kts | 194° |
| 2026-05-05 22:11 | 31.94826 | -8.42462 | 10532 ft | 317 kts | 194° |
| 2026-05-05 22:11 | 31.92691 | -8.42933 | 10404 ft | 307 kts | 194° |
| 2026-05-05 22:11 | 31.90628 | -8.43389 | 10278 ft | 297 kts | 194° |
| 2026-05-05 22:12 | 31.88628 | -8.43832 | 10155 ft | 288 kts | 194° |
| 2026-05-05 22:12 | 31.86687 | -8.44262 | 10035 ft | 280 kts | 194° |
| 2026-05-05 22:12 | 31.84781 | -8.44685 | 9730 ft | 279 kts | 194° |
| 2026-05-05 22:12 | 31.82882 | -8.45108 | 9428 ft | 277 kts | 194° |
| 2026-05-05 22:13 | 31.80993 | -8.45527 | 9134 ft | 275 kts | 194° |
| 2026-05-05 22:13 | 31.79116 | -8.45942 | 8831 ft | 274 kts | 194° |
| 2026-05-05 22:13 | 31.77251 | -8.46355 | 8555 ft | 271 kts | 193° |
| 2026-05-05 22:13 | 31.75402 | -8.46764 | 8275 ft | 269 kts | 193° |
| 2026-05-05 22:14 | 31.73583 | -8.47165 | 8154 ft | 258 kts | 193° |
| 2026-05-05 22:14 | 31.71889 | -8.47537 | 8040 ft | 237 kts | 193° |
| 2026-05-05 22:14 | 31.70331 | -8.47879 | 7914 ft | 218 kts | 193° |
| 2026-05-05 22:14 | 31.68905 | -8.48192 | 7807 ft | 199 kts | 193° |
| 2026-05-05 22:15 | 31.67594 | -8.48480 | 7670 ft | 186 kts | 193° |
| 2026-05-05 22:15 | 31.66304 | -8.48721 | 7192 ft | 191 kts | 182° |
| 2026-05-05 22:15 | 31.65084 | -8.48177 | 6857 ft | 197 kts | 136° |
| 2026-05-05 22:15 | 31.64516 | -8.46629 | 6631 ft | 222 kts | 101° |
| 2026-05-05 22:16 | 31.64367 | -8.44795 | 6354 ft | 228 kts | 99° |
| 2026-05-05 22:16 | 31.64201 | -8.42930 | 6083 ft | 231 kts | 100° |
| 2026-05-05 22:16 | 31.64046 | -8.41200 | 5832 ft | 231 kts | 100° |
| 2026-05-05 22:16 | 31.63882 | -8.39380 | 5605 ft | 228 kts | 100° |
| 2026-05-05 22:17 | 31.63720 | -8.37580 | 5495 ft | 221 kts | 100° |
| 2026-05-05 22:17 | 31.63556 | -8.35777 | 5400 ft | 219 kts | 99° |
| 2026-05-05 22:17 | 31.63395 | -8.34002 | 5323 ft | 219 kts | 98° |
| 2026-05-05 22:17 | 31.63237 | -8.32257 | 5269 ft | 216 kts | 98° |
| 2026-05-05 22:18 | 31.63081 | -8.30521 | 5177 ft | 212 kts | 98° |
| 2026-05-05 22:18 | 31.62926 | -8.28802 | 5079 ft | 213 kts | 98° |
| 2026-05-05 22:18 | 31.62767 | -8.27042 | 4839 ft | 220 kts | 97° |
| 2026-05-05 22:18 | 31.62608 | -8.25263 | 4608 ft | 218 kts | 97° |
| 2026-05-05 22:19 | 31.62455 | -8.23552 | 4498 ft | 204 kts | 97° |
| 2026-05-05 22:19 | 31.62310 | -8.21926 | 4241 ft | 196 kts | 96° |
| 2026-05-05 22:19 | 31.62170 | -8.20361 | 4000 ft | 191 kts | 95° |
| 2026-05-05 22:19 | 31.62035 | -8.18852 | 3758 ft | 180 kts | 94° |
| 2026-05-05 22:20 | 31.61958 | -8.17992 | 3632 ft | 171 kts | 94° |
| 2026-05-05 22:20 | 31.61841 | -8.16682 | 3405 ft | 155 kts | 92° |
| 2026-05-05 22:20 | 31.61732 | -8.15474 | 3170 ft | 149 kts | 93° |
| 2026-05-05 22:20 | 31.61596 | -8.14232 | 2917 ft | 153 kts | 92° |
| 2026-05-05 22:21 | 31.61495 | -8.12972 | 2752 ft | 158 kts | 91° |
| 2026-05-05 22:21 | 31.61396 | -8.11671 | 2601 ft | 163 kts | 92° |
| 2026-05-05 22:21 | 31.61260 | -8.10338 | 2300 ft | 166 kts | 92° |
| 2026-05-05 22:21 | 31.61164 | -8.09006 | 2081 ft | 161 kts | 90° |
| 2026-05-05 22:22 | 31.61048 | -8.07727 | 1896 ft | 154 kts | 94° |
| 2026-05-05 22:22 | 31.60937 | -8.06525 | 1731 ft | 144 kts | 90° |
| 2026-05-05 22:22 | 31.60842 | -8.05379 | 1556 ft | 139 kts | 92° |
| 2026-05-05 22:22 | 31.60751 | -8.04318 | 1514 ft | 115 kts | 96° |
| 2026-05-05 22:23 | 31.60683 | -8.03571 | 1523 ft | 68 kts | 96° |
| 2026-05-05 22:23 | 31.60629 | -8.03242 | 1529 ft | 20 kts | 116° |
| 2026-05-05 22:23 | 31.60553 | -8.03112 | 1530 ft | 19 kts | 126° |
| 2026-05-05 22:23 | 31.60474 | -8.02986 | 1523 ft | 19 kts | 123° |
| 2026-05-05 22:24 | 31.60446 | -8.02841 | 1533 ft | 18 kts | 95° |
| 2026-05-05 22:24 | 31.60434 | -8.02698 | 1533 ft | 17 kts | 96° |
| 2026-05-05 22:24 | 31.60422 | -8.02559 | 1536 ft | 17 kts | 97° |
| 2026-05-05 22:24 | 31.60377 | -8.02491 | 1535 ft | 10 kts | 173° |
| 2026-05-05 22:25 | 31.60349 | -8.02492 | 1537 ft | 3 kts | 183° |
| 2026-05-05 22:25 | 31.60345 | -8.02493 | 1537 ft | 1 kts | 183° |
| 2026-05-05 22:25 | 31.60343 | -8.02493 | 1537 ft | 0 kts | 183° |